sensor_id;sensor_type;location;lat;lon;timestamp;pressure;altitude;pressure_sealevel;temperature
62930;BMP280;49036;42.782;23.108;2023-06-22T00:00:41;94414.59;;;15.11
62930;BMP280;49036;42.782;23.108;2023-06-22T00:03:07;94409.00;;;14.99
62930;BMP280;49036;42.782;23.108;2023-06-22T00:05:33;94419.63;;;14.89
62930;BMP280;49036;42.782;23.108;2023-06-22T00:08:02;94415.38;;;14.76
62930;BMP280;49036;42.782;23.108;2023-06-22T00:10:28;94400.44;;;14.72
62930;BMP280;49036;42.782;23.108;2023-06-22T00:12:53;94397.91;;;14.64
62930;BMP280;49036;42.782;23.108;2023-06-22T00:15:19;94396.66;;;14.55
62930;BMP280;49036;42.782;23.108;2023-06-22T00:17:45;94388.28;;;14.55
62930;BMP280;49036;42.782;23.108;2023-06-22T00:20:11;94380.41;;;14.64
62930;BMP280;49036;42.782;23.108;2023-06-22T00:22:36;94374.56;;;14.71
62930;BMP280;49036;42.782;23.108;2023-06-22T00:25:06;94383.78;;;14.74
62930;BMP280;49036;42.782;23.108;2023-06-22T00:27:32;94384.25;;;14.70
62930;BMP280;49036;42.782;23.108;2023-06-22T00:29:57;94382.19;;;14.71
62930;BMP280;49036;42.782;23.108;2023-06-22T00:32:23;94383.19;;;14.64
62930;BMP280;49036;42.782;23.108;2023-06-22T00:34:48;94384.91;;;14.57
62930;BMP280;49036;42.782;23.108;2023-06-22T00:37:15;94385.00;;;14.47
62930;BMP280;49036;42.782;23.108;2023-06-22T00:39:42;94386.69;;;14.29
62930;BMP280;49036;42.782;23.108;2023-06-22T00:42:08;94384.63;;;14.29
62930;BMP280;49036;42.782;23.108;2023-06-22T00:44:34;94374.44;;;14.57
62930;BMP280;49036;42.782;23.108;2023-06-22T00:46:59;94376.63;;;14.71
62930;BMP280;49036;42.782;23.108;2023-06-22T00:49:25;94386.97;;;14.56
62930;BMP280;49036;42.782;23.108;2023-06-22T00:51:52;94391.22;;;14.46
62930;BMP280;49036;42.782;23.108;2023-06-22T00:54:17;94404.06;;;14.39
62930;BMP280;49036;42.782;23.108;2023-06-22T00:56:51;94406.25;;;14.29
62930;BMP280;49036;42.782;23.108;2023-06-22T00:59:20;94403.44;;;14.17
62930;BMP280;49036;42.782;23.108;2023-06-22T01:01:46;94393.59;;;14.16
62930;BMP280;49036;42.782;23.108;2023-06-22T01:04:12;94394.09;;;14.13
62930;BMP280;49036;42.782;23.108;2023-06-22T01:07:20;94404.38;;;13.99
62930;BMP280;49036;42.782;23.108;2023-06-22T01:09:49;94401.75;;;13.79
62930;BMP280;49036;42.782;23.108;2023-06-22T01:12:18;94406.25;;;13.73
62930;BMP280;49036;42.782;23.108;2023-06-22T01:14:52;94406.44;;;13.65
62930;BMP280;49036;42.782;23.108;2023-06-22T01:17:19;94397.22;;;13.62
62930;BMP280;49036;42.782;23.108;2023-06-22T01:19:47;94400.72;;;13.63
62930;BMP280;49036;42.782;23.108;2023-06-22T01:22:16;94409.81;;;13.63
62930;BMP280;49036;42.782;23.108;2023-06-22T01:27:28;94411.22;;;13.53
62930;BMP280;49036;42.782;23.108;2023-06-22T01:29:58;94414.56;;;13.40
62930;BMP280;49036;42.782;23.108;2023-06-22T01:32:35;94411.97;;;13.32
62930;BMP280;49036;42.782;23.108;2023-06-22T01:35:04;94420.25;;;13.20
62930;BMP280;49036;42.782;23.108;2023-06-22T01:37:31;94416.63;;;13.18
62930;BMP280;49036;42.782;23.108;2023-06-22T01:39:58;94418.28;;;13.11
62930;BMP280;49036;42.782;23.108;2023-06-22T01:42:24;94420.69;;;13.05
62930;BMP280;49036;42.782;23.108;2023-06-22T01:44:52;94415.50;;;13.11
62930;BMP280;49036;42.782;23.108;2023-06-22T01:47:19;94412.13;;;13.13
62930;BMP280;49036;42.782;23.108;2023-06-22T01:49:45;94422.13;;;13.06
62930;BMP280;49036;42.782;23.108;2023-06-22T01:52:11;94422.88;;;13.07
62930;BMP280;49036;42.782;23.108;2023-06-22T01:54:39;94423.97;;;13.13
62930;BMP280;49036;42.782;23.108;2023-06-22T01:57:05;94436.81;;;13.07
62930;BMP280;49036;42.782;23.108;2023-06-22T02:02:10;94442.00;;;12.91
62930;BMP280;49036;42.782;23.108;2023-06-22T02:04:57;94450.41;;;12.81
62930;BMP280;49036;42.782;23.108;2023-06-22T02:07:28;94444.56;;;12.77
62930;BMP280;49036;42.782;23.108;2023-06-22T02:09:56;94438.28;;;12.77
62930;BMP280;49036;42.782;23.108;2023-06-22T02:12:25;94441.97;;;12.70
62930;BMP280;49036;42.782;23.108;2023-06-22T02:14:53;94443.00;;;12.64
62930;BMP280;49036;42.782;23.108;2023-06-22T02:17:19;94450.34;;;12.60
62930;BMP280;49036;42.782;23.108;2023-06-22T02:19:45;94445.53;;;12.60
62930;BMP280;49036;42.782;23.108;2023-06-22T02:22:10;94441.41;;;12.61
62930;BMP280;49036;42.782;23.108;2023-06-22T02:24:39;94438.63;;;12.61
62930;BMP280;49036;42.782;23.108;2023-06-22T02:27:04;94430.28;;;12.61
62930;BMP280;49036;42.782;23.108;2023-06-22T02:29:32;94433.47;;;12.68
62930;BMP280;49036;42.782;23.108;2023-06-22T02:31:58;94437.69;;;12.78
62930;BMP280;49036;42.782;23.108;2023-06-22T02:34:23;94439.41;;;12.83
62930;BMP280;49036;42.782;23.108;2023-06-22T02:36:49;94429.41;;;12.90
62930;BMP280;49036;42.782;23.108;2023-06-22T02:39:22;94428.50;;;12.97
62930;BMP280;49036;42.782;23.108;2023-06-22T02:41:52;94421.72;;;13.00
62930;BMP280;49036;42.782;23.108;2023-06-22T02:56:55;94428.44;;;13.49
62930;BMP280;49036;42.782;23.108;2023-06-22T02:59:21;94435.69;;;13.43
62930;BMP280;49036;42.782;23.108;2023-06-22T03:01:49;94443.44;;;13.44
62930;BMP280;49036;42.782;23.108;2023-06-22T03:04:15;94446.22;;;13.44
62930;BMP280;49036;42.782;23.108;2023-06-22T03:06:41;94440.94;;;13.48
62930;BMP280;49036;42.782;23.108;2023-06-22T03:09:07;94441.56;;;13.58
62930;BMP280;49036;42.782;23.108;2023-06-22T03:11:33;94433.13;;;13.68
62930;BMP280;49036;42.782;23.108;2023-06-22T03:14:00;94452.44;;;13.76
62930;BMP280;49036;42.782;23.108;2023-06-22T03:16:26;94444.94;;;13.78
62930;BMP280;49036;42.782;23.108;2023-06-22T03:18:52;94445.50;;;13.98
62930;BMP280;49036;42.782;23.108;2023-06-22T03:21:19;94447.56;;;14.09
62930;BMP280;49036;42.782;23.108;2023-06-22T03:23:45;94458.94;;;14.35
62930;BMP280;49036;42.782;23.108;2023-06-22T03:26:10;94456.56;;;14.52
62930;BMP280;49036;42.782;23.108;2023-06-22T03:28:37;94458.47;;;14.61
62930;BMP280;49036;42.782;23.108;2023-06-22T03:31:03;94465.78;;;14.78
62930;BMP280;49036;42.782;23.108;2023-06-22T03:33:29;94469.41;;;14.92
62930;BMP280;49036;42.782;23.108;2023-06-22T03:35:55;94465.44;;;15.07
62930;BMP280;49036;42.782;23.108;2023-06-22T03:38:21;94469.66;;;15.20
62930;BMP280;49036;42.782;23.108;2023-06-22T03:40:46;94466.59;;;15.27
62930;BMP280;49036;42.782;23.108;2023-06-22T03:43:12;94471.06;;;15.33
62930;BMP280;49036;42.782;23.108;2023-06-22T03:45:37;94482.41;;;15.35
62930;BMP280;49036;42.782;23.108;2023-06-22T03:48:03;94475.81;;;15.42
62930;BMP280;49036;42.782;23.108;2023-06-22T03:50:28;94469.59;;;15.43
62930;BMP280;49036;42.782;23.108;2023-06-22T03:52:55;94470.03;;;15.51
62930;BMP280;49036;42.782;23.108;2023-06-22T03:55:21;94465.41;;;15.56
62930;BMP280;49036;42.782;23.108;2023-06-22T03:57:47;94462.88;;;15.60
62930;BMP280;49036;42.782;23.108;2023-06-22T04:00:13;94466.16;;;15.82
62930;BMP280;49036;42.782;23.108;2023-06-22T04:02:39;94450.53;;;16.02
62930;BMP280;49036;42.782;23.108;2023-06-22T04:05:05;94447.28;;;16.33
62930;BMP280;49036;42.782;23.108;2023-06-22T04:07:30;94461.78;;;16.69
62930;BMP280;49036;42.782;23.108;2023-06-22T04:09:56;94453.16;;;16.92
62930;BMP280;49036;42.782;23.108;2023-06-22T04:12:21;94460.53;;;17.26
62930;BMP280;49036;42.782;23.108;2023-06-22T04:14:47;94455.50;;;17.52
62930;BMP280;49036;42.782;23.108;2023-06-22T04:17:12;94455.41;;;17.80
62930;BMP280;49036;42.782;23.108;2023-06-22T04:19:40;94448.50;;;18.12
62930;BMP280;49036;42.782;23.108;2023-06-22T04:22:05;94445.44;;;18.37
62930;BMP280;49036;42.782;23.108;2023-06-22T04:24:33;94451.78;;;18.69
62930;BMP280;49036;42.782;23.108;2023-06-22T04:26:58;94446.91;;;19.03
62930;BMP280;49036;42.782;23.108;2023-06-22T04:29:29;94452.66;;;19.57
62930;BMP280;49036;42.782;23.108;2023-06-22T04:34:22;94449.81;;;20.10
62930;BMP280;49036;42.782;23.108;2023-06-22T04:36:51;94455.50;;;20.30
62930;BMP280;49036;42.782;23.108;2023-06-22T04:39:17;94462.03;;;20.54
62930;BMP280;49036;42.782;23.108;2023-06-22T04:41:44;94462.19;;;20.78
62930;BMP280;49036;42.782;23.108;2023-06-22T04:44:15;94463.38;;;21.12
62930;BMP280;49036;42.782;23.108;2023-06-22T04:46:51;94462.28;;;22.11
62930;BMP280;49036;42.782;23.108;2023-06-22T04:49:20;94465.56;;;23.58
62930;BMP280;49036;42.782;23.108;2023-06-22T04:51:47;94464.53;;;24.05
62930;BMP280;49036;42.782;23.108;2023-06-22T04:54:13;94461.56;;;24.31
62930;BMP280;49036;42.782;23.108;2023-06-22T04:56:38;94457.91;;;24.62
62930;BMP280;49036;42.782;23.108;2023-06-22T04:59:06;94466.09;;;25.20
62930;BMP280;49036;42.782;23.108;2023-06-22T05:01:32;94462.31;;;25.51
62930;BMP280;49036;42.782;23.108;2023-06-22T05:03:58;94472.72;;;25.81
62930;BMP280;49036;42.782;23.108;2023-06-22T05:06:26;94460.53;;;26.24
62930;BMP280;49036;42.782;23.108;2023-06-22T05:08:56;94461.78;;;26.11
62930;BMP280;49036;42.782;23.108;2023-06-22T05:11:26;94462.13;;;26.39
62930;BMP280;49036;42.782;23.108;2023-06-22T05:13:52;94470.97;;;26.66
62930;BMP280;49036;42.782;23.108;2023-06-22T05:16:18;94471.19;;;26.84
62930;BMP280;49036;42.782;23.108;2023-06-22T05:20:57;94483.56;;;27.11
62930;BMP280;49036;42.782;23.108;2023-06-22T05:23:41;94485.56;;;26.96
62930;BMP280;49036;42.782;23.108;2023-06-22T05:26:07;94485.84;;;26.02
62930;BMP280;49036;42.782;23.108;2023-06-22T05:30:15;94490.28;;;25.65
62930;BMP280;49036;42.782;23.108;2023-06-22T05:32:41;94495.88;;;25.61
62930;BMP280;49036;42.782;23.108;2023-06-22T05:36:17;94489.84;;;24.63
62930;BMP280;49036;42.782;23.108;2023-06-22T05:38:44;94482.84;;;24.32
62930;BMP280;49036;42.782;23.108;2023-06-22T05:41:09;94482.44;;;24.14
62930;BMP280;49036;42.782;23.108;2023-06-22T05:43:34;94490.25;;;23.83
62930;BMP280;49036;42.782;23.108;2023-06-22T05:46:01;94485.28;;;23.84
62930;BMP280;49036;42.782;23.108;2023-06-22T05:48:27;94498.31;;;23.95
62930;BMP280;49036;42.782;23.108;2023-06-22T05:50:53;94497.00;;;23.68
62930;BMP280;49036;42.782;23.108;2023-06-22T05:54:10;94494.50;;;23.82
62930;BMP280;49036;42.782;23.108;2023-06-22T05:56:35;94482.00;;;24.61
62930;BMP280;49036;42.782;23.108;2023-06-22T05:59:01;94489.34;;;25.12
62930;BMP280;49036;42.782;23.108;2023-06-22T06:02:03;94487.66;;;24.59
62930;BMP280;49036;42.782;23.108;2023-06-22T06:04:30;94484.97;;;24.67
62930;BMP280;49036;42.782;23.108;2023-06-22T06:06:55;94484.22;;;25.43
62930;BMP280;49036;42.782;23.108;2023-06-22T06:14:36;94479.91;;;27.00
62930;BMP280;49036;42.782;23.108;2023-06-22T06:17:02;94488.13;;;26.72
62930;BMP280;49036;42.782;23.108;2023-06-22T06:19:27;94486.78;;;26.77
62930;BMP280;49036;42.782;23.108;2023-06-22T06:21:53;94488.03;;;26.64
62930;BMP280;49036;42.782;23.108;2023-06-22T06:26:08;94484.09;;;26.31
62930;BMP280;49036;42.782;23.108;2023-06-22T06:28:34;94482.22;;;26.52
62930;BMP280;49036;42.782;23.108;2023-06-22T06:31:00;94478.81;;;26.65
62930;BMP280;49036;42.782;23.108;2023-06-22T06:33:26;94483.34;;;26.87
62930;BMP280;49036;42.782;23.108;2023-06-22T06:35:51;94482.78;;;27.02
62930;BMP280;49036;42.782;23.108;2023-06-22T06:38:17;94480.44;;;26.85
62930;BMP280;49036;42.782;23.108;2023-06-22T06:40:42;94480.38;;;26.78
62930;BMP280;49036;42.782;23.108;2023-06-22T06:43:09;94489.25;;;26.45
62930;BMP280;49036;42.782;23.108;2023-06-22T06:45:34;94473.09;;;26.61
62930;BMP280;49036;42.782;23.108;2023-06-22T06:48:00;94470.47;;;26.84
62930;BMP280;49036;42.782;23.108;2023-06-22T06:50:26;94475.28;;;26.67
62930;BMP280;49036;42.782;23.108;2023-06-22T06:52:51;94473.97;;;26.20
62930;BMP280;49036;42.782;23.108;2023-06-22T06:55:17;94469.66;;;25.65
62930;BMP280;49036;42.782;23.108;2023-06-22T06:57:44;94474.84;;;25.34
62930;BMP280;49036;42.782;23.108;2023-06-22T07:00:12;94468.94;;;25.22
62930;BMP280;49036;42.782;23.108;2023-06-22T07:02:43;94466.00;;;25.16
62930;BMP280;49036;42.782;23.108;2023-06-22T07:05:10;94472.78;;;24.99
62930;BMP280;49036;42.782;23.108;2023-06-22T07:07:35;94475.81;;;24.71
62930;BMP280;49036;42.782;23.108;2023-06-22T07:10:01;94476.34;;;24.61
62930;BMP280;49036;42.782;23.108;2023-06-22T07:12:28;94478.34;;;24.55
62930;BMP280;49036;42.782;23.108;2023-06-22T07:16:32;94475.34;;;24.15
62930;BMP280;49036;42.782;23.108;2023-06-22T07:18:58;94481.56;;;24.05
62930;BMP280;49036;42.782;23.108;2023-06-22T07:21:23;94490.72;;;24.04
62930;BMP280;49036;42.782;23.108;2023-06-22T07:23:49;94491.78;;;23.86
62930;BMP280;49036;42.782;23.108;2023-06-22T07:26:14;94497.72;;;24.00
62930;BMP280;49036;42.782;23.108;2023-06-22T07:28:41;94485.59;;;23.96
62930;BMP280;49036;42.782;23.108;2023-06-22T07:31:06;94479.47;;;24.08
62930;BMP280;49036;42.782;23.108;2023-06-22T07:33:32;94477.47;;;24.14
62930;BMP280;49036;42.782;23.108;2023-06-22T07:37:27;94479.56;;;24.46
62930;BMP280;49036;42.782;23.108;2023-06-22T07:39:53;94479.34;;;24.69
62930;BMP280;49036;42.782;23.108;2023-06-22T07:42:26;94481.84;;;24.53
62930;BMP280;49036;42.782;23.108;2023-06-22T07:44:52;94477.41;;;24.80
62930;BMP280;49036;42.782;23.108;2023-06-22T07:47:18;94481.47;;;25.07
62930;BMP280;49036;42.782;23.108;2023-06-22T07:51:31;94478.19;;;25.23
62930;BMP280;49036;42.782;23.108;2023-06-22T07:53:57;94469.19;;;25.38
62930;BMP280;49036;42.782;23.108;2023-06-22T07:56:22;94472.78;;;25.39
62930;BMP280;49036;42.782;23.108;2023-06-22T07:58:48;94471.34;;;25.38
62930;BMP280;49036;42.782;23.108;2023-06-22T08:03:40;94462.97;;;25.46
62930;BMP280;49036;42.782;23.108;2023-06-22T08:08:09;94453.41;;;25.71
62930;BMP280;49036;42.782;23.108;2023-06-22T08:10:35;94462.22;;;25.91
62930;BMP280;49036;42.782;23.108;2023-06-22T08:13:01;94459.59;;;26.06
62930;BMP280;49036;42.782;23.108;2023-06-22T08:15:57;94455.56;;;26.27
62930;BMP280;49036;42.782;23.108;2023-06-22T08:18:22;94457.91;;;26.45
62930;BMP280;49036;42.782;23.108;2023-06-22T08:20:48;94460.28;;;26.66
62930;BMP280;49036;42.782;23.108;2023-06-22T08:24:16;94471.94;;;26.91
62930;BMP280;49036;42.782;23.108;2023-06-22T08:26:42;94464.78;;;26.84
62930;BMP280;49036;42.782;23.108;2023-06-22T08:29:07;94464.34;;;27.15
62930;BMP280;49036;42.782;23.108;2023-06-22T08:31:33;94452.91;;;27.07
62930;BMP280;49036;42.782;23.108;2023-06-22T08:33:59;94452.34;;;27.25
62930;BMP280;49036;42.782;23.108;2023-06-22T08:36:25;94456.00;;;27.40
62930;BMP280;49036;42.782;23.108;2023-06-22T08:38:54;94453.91;;;27.42
62930;BMP280;49036;42.782;23.108;2023-06-22T08:41:26;94452.06;;;27.83
62930;BMP280;49036;42.782;23.108;2023-06-22T08:43:52;94440.78;;;28.18
62930;BMP280;49036;42.782;23.108;2023-06-22T08:46:19;94439.41;;;28.33
62930;BMP280;49036;42.782;23.108;2023-06-22T08:48:47;94436.59;;;28.45
62930;BMP280;49036;42.782;23.108;2023-06-22T08:51:13;94434.38;;;28.23
62930;BMP280;49036;42.782;23.108;2023-06-22T08:53:39;94440.81;;;28.20
62930;BMP280;49036;42.782;23.108;2023-06-22T08:56:05;94441.63;;;28.51
62930;BMP280;49036;42.782;23.108;2023-06-22T08:58:30;94440.25;;;28.66
62930;BMP280;49036;42.782;23.108;2023-06-22T09:00:55;94437.31;;;28.33
62930;BMP280;49036;42.782;23.108;2023-06-22T09:03:21;94440.97;;;28.60
62930;BMP280;49036;42.782;23.108;2023-06-22T09:05:47;94441.03;;;29.01
62930;BMP280;49036;42.782;23.108;2023-06-22T09:08:12;94432.44;;;28.86
62930;BMP280;49036;42.782;23.108;2023-06-22T09:10:38;94443.03;;;28.45
62930;BMP280;49036;42.782;23.108;2023-06-22T09:13:03;94443.75;;;28.42
62930;BMP280;49036;42.782;23.108;2023-06-22T09:15:29;94430.31;;;28.97
62930;BMP280;49036;42.782;23.108;2023-06-22T09:17:54;94439.56;;;29.22
62930;BMP280;49036;42.782;23.108;2023-06-22T09:20:20;94441.03;;;29.07
62930;BMP280;49036;42.782;23.108;2023-06-22T09:22:46;94432.44;;;29.41
62930;BMP280;49036;42.782;23.108;2023-06-22T09:25:11;94429.56;;;29.51
62930;BMP280;49036;42.782;23.108;2023-06-22T09:27:37;94433.06;;;29.94
62930;BMP280;49036;42.782;23.108;2023-06-22T09:30:03;94426.47;;;30.18
62930;BMP280;49036;42.782;23.108;2023-06-22T09:32:29;94437.28;;;30.03
62930;BMP280;49036;42.782;23.108;2023-06-22T09:34:55;94441.63;;;30.00
62930;BMP280;49036;42.782;23.108;2023-06-22T09:37:20;94429.22;;;30.48
62930;BMP280;49036;42.782;23.108;2023-06-22T09:39:46;94434.81;;;30.67
62930;BMP280;49036;42.782;23.108;2023-06-22T09:42:11;94437.63;;;30.79
62930;BMP280;49036;42.782;23.108;2023-06-22T09:44:38;94430.31;;;30.98
62930;BMP280;49036;42.782;23.108;2023-06-22T09:47:04;94430.28;;;31.77
62930;BMP280;49036;42.782;23.108;2023-06-22T09:49:30;94422.94;;;32.48
62930;BMP280;49036;42.782;23.108;2023-06-22T09:51:57;94424.84;;;33.51
62930;BMP280;49036;42.782;23.108;2023-06-22T09:54:23;94421.44;;;33.41
62930;BMP280;49036;42.782;23.108;2023-06-22T09:56:48;94428.56;;;33.44
62930;BMP280;49036;42.782;23.108;2023-06-22T09:59:14;94429.59;;;33.67
62930;BMP280;49036;42.782;23.108;2023-06-22T10:01:39;94417.28;;;34.05
62930;BMP280;49036;42.782;23.108;2023-06-22T10:04:05;94420.00;;;33.78
62930;BMP280;49036;42.782;23.108;2023-06-22T10:06:30;94429.06;;;33.15
62930;BMP280;49036;42.782;23.108;2023-06-22T10:08:56;94411.44;;;32.93
62930;BMP280;49036;42.782;23.108;2023-06-22T10:11:21;94418.72;;;33.32
62930;BMP280;49036;42.782;23.108;2023-06-22T10:13:54;94416.19;;;34.85
62930;BMP280;49036;42.782;23.108;2023-06-22T10:16:20;94416.97;;;34.52
62930;BMP280;49036;42.782;23.108;2023-06-22T10:18:45;94414.84;;;34.18
62930;BMP280;49036;42.782;23.108;2023-06-22T10:21:11;94411.03;;;35.45
62930;BMP280;49036;42.782;23.108;2023-06-22T10:23:36;94411.63;;;34.65
62930;BMP280;49036;42.782;23.108;2023-06-22T10:26:02;94408.13;;;33.19
62930;BMP280;49036;42.782;23.108;2023-06-22T10:28:27;94406.28;;;34.14
62930;BMP280;49036;42.782;23.108;2023-06-22T10:30:53;94413.06;;;34.33
62930;BMP280;49036;42.782;23.108;2023-06-22T10:33:18;94403.56;;;34.41
62930;BMP280;49036;42.782;23.108;2023-06-22T10:35:44;94398.13;;;34.86
62930;BMP280;49036;42.782;23.108;2023-06-22T10:38:09;94398.09;;;35.68
62930;BMP280;49036;42.782;23.108;2023-06-22T10:40:35;94407.00;;;37.21
62930;BMP280;49036;42.782;23.108;2023-06-22T10:43:00;94404.00;;;38.40
62930;BMP280;49036;42.782;23.108;2023-06-22T10:45:26;94409.75;;;37.86
62930;BMP280;49036;42.782;23.108;2023-06-22T10:47:52;94403.22;;;37.85
62930;BMP280;49036;42.782;23.108;2023-06-22T10:50:18;94395.22;;;37.46
62930;BMP280;49036;42.782;23.108;2023-06-22T10:52:43;94394.06;;;37.39
62930;BMP280;49036;42.782;23.108;2023-06-22T10:55:09;94385.75;;;39.28
62930;BMP280;49036;42.782;23.108;2023-06-22T10:57:35;94391.38;;;39.80
62930;BMP280;49036;42.782;23.108;2023-06-22T11:00:02;94398.47;;;40.00
62930;BMP280;49036;42.782;23.108;2023-06-22T11:02:31;94388.41;;;39.18
62930;BMP280;49036;42.782;23.108;2023-06-22T11:04:56;94403.75;;;37.32
62930;BMP280;49036;42.782;23.108;2023-06-22T11:07:24;94387.47;;;36.58
62930;BMP280;49036;42.782;23.108;2023-06-22T11:09:49;94392.91;;;38.63
62930;BMP280;49036;42.782;23.108;2023-06-22T11:12:15;94384.31;;;39.61
62930;BMP280;49036;42.782;23.108;2023-06-22T11:14:40;94383.78;;;40.92
62930;BMP280;49036;42.782;23.108;2023-06-22T11:17:06;94380.88;;;41.86
62930;BMP280;49036;42.782;23.108;2023-06-22T11:19:31;94379.84;;;41.52
62930;BMP280;49036;42.782;23.108;2023-06-22T11:21:57;94377.31;;;39.39
62930;BMP280;49036;42.782;23.108;2023-06-22T11:24:22;94378.81;;;38.88
62930;BMP280;49036;42.782;23.108;2023-06-22T11:26:48;94382.63;;;38.49
62930;BMP280;49036;42.782;23.108;2023-06-22T11:29:13;94377.69;;;36.90
62930;BMP280;49036;42.782;23.108;2023-06-22T11:31:39;94369.78;;;35.21
62930;BMP280;49036;42.782;23.108;2023-06-22T11:34:04;94373.50;;;35.45
62930;BMP280;49036;42.782;23.108;2023-06-22T11:36:30;94377.00;;;36.21
62930;BMP280;49036;42.782;23.108;2023-06-22T11:38:58;94385.31;;;37.81
62930;BMP280;49036;42.782;23.108;2023-06-22T11:41:24;94386.06;;;37.40
62930;BMP280;49036;42.782;23.108;2023-06-22T11:43:49;94373.44;;;35.96
62930;BMP280;49036;42.782;23.108;2023-06-22T11:46:15;94367.72;;;35.45
62930;BMP280;49036;42.782;23.108;2023-06-22T11:48:40;94366.19;;;35.97
62930;BMP280;49036;42.782;23.108;2023-06-22T11:51:06;94346.69;;;36.20
62930;BMP280;49036;42.782;23.108;2023-06-22T11:53:33;94352.25;;;36.49
62930;BMP280;49036;42.782;23.108;2023-06-22T11:56:00;94352.63;;;35.92
62930;BMP280;49036;42.782;23.108;2023-06-22T11:58:26;94360.13;;;35.58
62930;BMP280;49036;42.782;23.108;2023-06-22T12:00:52;94353.41;;;38.18
62930;BMP280;49036;42.782;23.108;2023-06-22T12:03:18;94358.91;;;40.36
62930;BMP280;49036;42.782;23.108;2023-06-22T12:05:44;94359.50;;;39.30
62930;BMP280;49036;42.782;23.108;2023-06-22T12:08:09;94369.34;;;37.01
62930;BMP280;49036;42.782;23.108;2023-06-22T12:10:35;94380.97;;;34.80
62930;BMP280;49036;42.782;23.108;2023-06-22T12:25:33;94423.97;;;23.98
62930;BMP280;49036;42.782;23.108;2023-06-22T12:27:58;94425.53;;;24.39
62930;BMP280;49036;42.782;23.108;2023-06-22T12:30:24;94419.59;;;25.01
62930;BMP280;49036;42.782;23.108;2023-06-22T12:32:49;94412.75;;;25.63
62930;BMP280;49036;42.782;23.108;2023-06-22T12:35:16;94402.78;;;26.16
62930;BMP280;49036;42.782;23.108;2023-06-22T12:37:42;94408.31;;;26.62
62930;BMP280;49036;42.782;23.108;2023-06-22T12:40:08;94414.59;;;27.27
62930;BMP280;49036;42.782;23.108;2023-06-22T12:42:34;94425.13;;;28.27
62930;BMP280;49036;42.782;23.108;2023-06-22T12:45:00;94405.59;;;30.44
62930;BMP280;49036;42.782;23.108;2023-06-22T12:47:25;94413.00;;;32.85
62930;BMP280;49036;42.782;23.108;2023-06-22T12:49:51;94406.00;;;33.93
62930;BMP280;49036;42.782;23.108;2023-06-22T12:52:16;94416.16;;;33.12
62930;BMP280;49036;42.782;23.108;2023-06-22T12:54:42;94401.19;;;31.48
62930;BMP280;49036;42.782;23.108;2023-06-22T12:57:07;94403.09;;;29.57
62930;BMP280;49036;42.782;23.108;2023-06-22T12:59:33;94399.09;;;27.58
62930;BMP280;49036;42.782;23.108;2023-06-22T13:01:59;94396.53;;;26.27
62930;BMP280;49036;42.782;23.108;2023-06-22T13:04:24;94407.28;;;25.79
62930;BMP280;49036;42.782;23.108;2023-06-22T13:06:50;94406.22;;;25.10
62930;BMP280;49036;42.782;23.108;2023-06-22T13:09:18;94409.81;;;23.98
62930;BMP280;49036;42.782;23.108;2023-06-22T13:11:43;94426.94;;;23.43
62930;BMP280;49036;42.782;23.108;2023-06-22T13:14:09;94441.53;;;23.03
62930;BMP280;49036;42.782;23.108;2023-06-22T13:16:35;94469.47;;;22.63
62930;BMP280;49036;42.782;23.108;2023-06-22T13:19:00;94476.31;;;22.54
62930;BMP280;49036;42.782;23.108;2023-06-22T13:21:26;94475.81;;;21.90
62930;BMP280;49036;42.782;23.108;2023-06-22T13:23:51;94465.19;;;20.64
62930;BMP280;49036;42.782;23.108;2023-06-22T13:26:17;94446.00;;;20.21
62930;BMP280;49036;42.782;23.108;2023-06-22T13:28:43;94432.66;;;20.04
62930;BMP280;49036;42.782;23.108;2023-06-22T13:31:08;94432.09;;;20.07
62930;BMP280;49036;42.782;23.108;2023-06-22T13:33:33;94420.97;;;20.11
62930;BMP280;49036;42.782;23.108;2023-06-22T13:35:59;94400.22;;;20.03
62930;BMP280;49036;42.782;23.108;2023-06-22T13:38:24;94392.59;;;20.25
62930;BMP280;49036;42.782;23.108;2023-06-22T13:40:50;94393.06;;;20.19
62930;BMP280;49036;42.782;23.108;2023-06-22T13:43:16;94386.50;;;20.13
62930;BMP280;49036;42.782;23.108;2023-06-22T13:45:42;94393.94;;;20.04
62930;BMP280;49036;42.782;23.108;2023-06-22T13:48:08;94391.72;;;20.01
62930;BMP280;49036;42.782;23.108;2023-06-22T13:50:33;94391.13;;;20.04
62930;BMP280;49036;42.782;23.108;2023-06-22T13:52:59;94394.69;;;19.87
62930;BMP280;49036;42.782;23.108;2023-06-22T13:55:24;94397.34;;;19.83
62930;BMP280;49036;42.782;23.108;2023-06-22T13:58:03;94396.16;;;19.88
62930;BMP280;49036;42.782;23.108;2023-06-22T14:00:29;94409.19;;;19.97
62930;BMP280;49036;42.782;23.108;2023-06-22T14:02:54;94407.28;;;20.04
62930;BMP280;49036;42.782;23.108;2023-06-22T14:05:20;94420.75;;;20.05
62930;BMP280;49036;42.782;23.108;2023-06-22T14:07:45;94426.25;;;20.01
62930;BMP280;49036;42.782;23.108;2023-06-22T14:10:11;94415.44;;;19.96
62930;BMP280;49036;42.782;23.108;2023-06-22T14:12:36;94423.81;;;19.94
62930;BMP280;49036;42.782;23.108;2023-06-22T14:15:02;94418.81;;;19.92
62930;BMP280;49036;42.782;23.108;2023-06-22T14:17:28;94423.81;;;19.94
62930;BMP280;49036;42.782;23.108;2023-06-22T14:19:53;94418.56;;;20.04
62930;BMP280;49036;42.782;23.108;2023-06-22T14:22:20;94424.50;;;20.12
62930;BMP280;49036;42.782;23.108;2023-06-22T14:24:46;94434.72;;;20.21
62930;BMP280;49036;42.782;23.108;2023-06-22T14:27:12;94438.63;;;20.32
62930;BMP280;49036;42.782;23.108;2023-06-22T14:29:38;94434.16;;;20.44
62930;BMP280;49036;42.782;23.108;2023-06-22T14:32:03;94436.94;;;20.62
62930;BMP280;49036;42.782;23.108;2023-06-22T14:34:31;94422.97;;;20.86
62930;BMP280;49036;42.782;23.108;2023-06-22T14:36:56;94429.03;;;21.20
62930;BMP280;49036;42.782;23.108;2023-06-22T14:39:22;94425.84;;;21.51
62930;BMP280;49036;42.782;23.108;2023-06-22T14:43:10;94416.16;;;21.80
62930;BMP280;49036;42.782;23.108;2023-06-22T14:45:35;94417.28;;;21.95
62930;BMP280;49036;42.782;23.108;2023-06-22T14:48:01;94425.00;;;22.16
62930;BMP280;49036;42.782;23.108;2023-06-22T14:51:21;94415.81;;;22.18